BERRYESSA (BER)

Elevation: 456' · PUTAH CR basin · Operator: US Bureau of Reclamation

Provisional data, subject to change.
Query executed Friday at 5:27:53   clock

Select a sensor type for a plot of data.
Note: Reservoir Flows are daily averages.

Earlier

Date RES ELE    STORAGE    OUTFLOW    INFLOW    PPT INC   
 FEET   AF   CFS   CFS   INCHES  
10/02/2014 402.11 907734 280 154 0.00
10/03/2014 402.05 906834 288 -74 0.00
10/04/2014 402.01 906233 314 122 0.00
10/05/2014 401.96 905483 341 103 0.00
10/06/2014 401.90 904583 350 17 0.00
10/07/2014 401.86 903984 350 173 0.00
10/08/2014 401.82 903385 350 149 0.00
10/09/2014 401.77 902636 365 79 0.00
10/10/2014 401.69 901438 390 -103 0.00
10/11/2014 401.64 900690 390 100 0.00
10/12/2014 401.56 899493 380 -136 0.00
10/13/2014 401.52 898895 362 205 0.00
10/14/2014 401.45 897849 330 -96 0.00
10/15/2014 401.44 897700 177 160 0.02
10/16/2014 401.40 897102 88 -170 0.19
10/17/2014 401.39 896953 107 85 0.00
10/18/2014 401.38 896804 110 83 0.00
10/19/2014 401.35 896356 110 -68 0.00
10/20/2014 401.34 896206 113 99 0.00
10/21/2014 401.32 895908 115 32 0.00
10/22/2014 401.27 895162 115 -203 0.00
10/23/2014 401.25 894863 119 16 0.00
10/24/2014 401.24 894714 115 74 0.00
10/25/2014 401.22 894416 122 30 0.20
10/26/2014 401.19 893969 125 -86 0.14
10/27/2014 -- -- -- -- --
10/28/2014 -- -- -- -- --
10/29/2014 -- -- -- -- --
10/30/2014 -- -- -- -- --
10/31/2014 -- -- -- -- --

Later | Latest

Warning! This data is preliminary and subject to revision.

Show BER Map | Plot BER Data | 1 Month BER Data | Real-Time BER Data | BER Info